sensor_id;sensor_type;location;lat;lon;timestamp;P1;durP1;ratioP1;P2;durP2;ratioP2
25653;SDS011;13511;48.622;9.230;2022-08-19T00:00:35;19.70;;;18.10;;
25653;SDS011;13511;48.622;9.230;2022-08-19T00:03:02;19.40;;;17.70;;
25653;SDS011;13511;48.622;9.230;2022-08-19T00:05:29;20.30;;;18.70;;
25653;SDS011;13511;48.622;9.230;2022-08-19T00:07:55;21.08;;;19.17;;
25653;SDS011;13511;48.622;9.230;2022-08-19T00:10:21;20.17;;;18.38;;
25653;SDS011;13511;48.622;9.230;2022-08-19T00:12:48;20.27;;;18.55;;
25653;SDS011;13511;48.622;9.230;2022-08-19T00:15:15;21.00;;;19.30;;
25653;SDS011;13511;48.622;9.230;2022-08-19T00:17:42;19.90;;;17.85;;
25653;SDS011;13511;48.622;9.230;2022-08-19T00:20:16;21.23;;;19.25;;
25653;SDS011;13511;48.622;9.230;2022-08-19T00:22:43;20.90;;;19.20;;
25653;SDS011;13511;48.622;9.230;2022-08-19T00:25:10;20.85;;;18.98;;
25653;SDS011;13511;48.622;9.230;2022-08-19T00:27:36;23.77;;;21.30;;
25653;SDS011;13511;48.622;9.230;2022-08-19T00:30:03;20.92;;;19.27;;
25653;SDS011;13511;48.622;9.230;2022-08-19T00:32:30;22.98;;;20.98;;
25653;SDS011;13511;48.622;9.230;2022-08-19T00:34:56;22.58;;;20.55;;
25653;SDS011;13511;48.622;9.230;2022-08-19T00:37:23;21.83;;;19.65;;
25653;SDS011;13511;48.622;9.230;2022-08-19T00:39:51;21.55;;;19.48;;
25653;SDS011;13511;48.622;9.230;2022-08-19T00:42:17;22.40;;;20.60;;
25653;SDS011;13511;48.622;9.230;2022-08-19T00:44:44;22.90;;;20.83;;
25653;SDS011;13511;48.622;9.230;2022-08-19T00:47:10;21.02;;;19.10;;
25653;SDS011;13511;48.622;9.230;2022-08-19T00:49:37;21.77;;;19.77;;
25653;SDS011;13511;48.622;9.230;2022-08-19T00:52:13;22.30;;;20.40;;
25653;SDS011;13511;48.622;9.230;2022-08-19T00:54:40;22.48;;;20.50;;
25653;SDS011;13511;48.622;9.230;2022-08-19T00:57:08;22.50;;;20.60;;
25653;SDS011;13511;48.622;9.230;2022-08-19T00:59:34;23.05;;;21.15;;
25653;SDS011;13511;48.622;9.230;2022-08-19T01:02:01;22.55;;;20.33;;
25653;SDS011;13511;48.622;9.230;2022-08-19T01:04:27;22.63;;;20.65;;
25653;SDS011;13511;48.622;9.230;2022-08-19T01:06:53;23.13;;;21.02;;
25653;SDS011;13511;48.622;9.230;2022-08-19T01:09:19;25.13;;;22.63;;
25653;SDS011;13511;48.622;9.230;2022-08-19T01:11:45;24.65;;;22.42;;
25653;SDS011;13511;48.622;9.230;2022-08-19T01:14:11;24.83;;;22.63;;
25653;SDS011;13511;48.622;9.230;2022-08-19T01:16:38;23.73;;;21.63;;
25653;SDS011;13511;48.622;9.230;2022-08-19T01:19:18;24.85;;;22.55;;
25653;SDS011;13511;48.622;9.230;2022-08-19T01:21:50;26.42;;;23.98;;
25653;SDS011;13511;48.622;9.230;2022-08-19T01:24:18;27.37;;;24.50;;
25653;SDS011;13511;48.622;9.230;2022-08-19T01:26:44;24.42;;;22.10;;
25653;SDS011;13511;48.622;9.230;2022-08-19T01:29:11;24.42;;;22.17;;
25653;SDS011;13511;48.622;9.230;2022-08-19T01:31:37;24.70;;;22.50;;
25653;SDS011;13511;48.622;9.230;2022-08-19T01:34:04;27.80;;;22.98;;
25653;SDS011;13511;48.622;9.230;2022-08-19T01:36:32;25.05;;;22.75;;
25653;SDS011;13511;48.622;9.230;2022-08-19T01:38:58;26.25;;;23.85;;
25653;SDS011;13511;48.622;9.230;2022-08-19T01:41:25;25.42;;;23.02;;
25653;SDS011;13511;48.622;9.230;2022-08-19T01:43:51;25.33;;;23.05;;
25653;SDS011;13511;48.622;9.230;2022-08-19T01:46:18;24.63;;;22.50;;
25653;SDS011;13511;48.622;9.230;2022-08-19T01:48:44;28.65;;;25.88;;
25653;SDS011;13511;48.622;9.230;2022-08-19T01:51:11;26.58;;;23.67;;
25653;SDS011;13511;48.622;9.230;2022-08-19T01:53:38;27.00;;;24.20;;
25653;SDS011;13511;48.622;9.230;2022-08-19T01:56:04;26.63;;;23.95;;
25653;SDS011;13511;48.622;9.230;2022-08-19T01:58:32;26.80;;;24.05;;
25653;SDS011;13511;48.622;9.230;2022-08-19T02:01:01;27.98;;;24.92;;
25653;SDS011;13511;48.622;9.230;2022-08-19T02:03:27;30.00;;;26.88;;
25653;SDS011;13511;48.622;9.230;2022-08-19T02:05:58;27.55;;;24.95;;
25653;SDS011;13511;48.622;9.230;2022-08-19T02:08:25;26.98;;;24.25;;
25653;SDS011;13511;48.622;9.230;2022-08-19T02:10:51;26.45;;;23.85;;
25653;SDS011;13511;48.622;9.230;2022-08-19T02:13:17;24.98;;;22.75;;
25653;SDS011;13511;48.622;9.230;2022-08-19T02:15:43;26.15;;;23.05;;
25653;SDS011;13511;48.622;9.230;2022-08-19T02:18:09;25.27;;;22.88;;
25653;SDS011;13511;48.622;9.230;2022-08-19T02:20:36;25.58;;;22.98;;
25653;SDS011;13511;48.622;9.230;2022-08-19T02:23:03;26.85;;;23.98;;
25653;SDS011;13511;48.622;9.230;2022-08-19T02:25:29;27.83;;;24.85;;
25653;SDS011;13511;48.622;9.230;2022-08-19T02:27:55;27.13;;;24.38;;
25653;SDS011;13511;48.622;9.230;2022-08-19T02:30:21;25.85;;;23.40;;
25653;SDS011;13511;48.622;9.230;2022-08-19T02:32:49;29.52;;;24.52;;
25653;SDS011;13511;48.622;9.230;2022-08-19T02:35:16;29.30;;;26.13;;
25653;SDS011;13511;48.622;9.230;2022-08-19T02:37:42;25.20;;;22.77;;
25653;SDS011;13511;48.622;9.230;2022-08-19T02:40:28;26.20;;;23.30;;
25653;SDS011;13511;48.622;9.230;2022-08-19T02:42:54;26.98;;;24.20;;
25653;SDS011;13511;48.622;9.230;2022-08-19T02:45:20;27.63;;;24.75;;
25653;SDS011;13511;48.622;9.230;2022-08-19T02:47:46;27.13;;;24.13;;
25653;SDS011;13511;48.622;9.230;2022-08-19T02:50:13;28.35;;;25.15;;
25653;SDS011;13511;48.622;9.230;2022-08-19T02:52:39;29.75;;;26.55;;
25653;SDS011;13511;48.622;9.230;2022-08-19T02:55:05;26.02;;;23.58;;
25653;SDS011;13511;48.622;9.230;2022-08-19T02:57:32;28.85;;;25.85;;
25653;SDS011;13511;48.622;9.230;2022-08-19T02:59:59;29.15;;;26.25;;
25653;SDS011;13511;48.622;9.230;2022-08-19T03:02:26;26.67;;;23.88;;
25653;SDS011;13511;48.622;9.230;2022-08-19T03:04:52;30.15;;;26.90;;
25653;SDS011;13511;48.622;9.230;2022-08-19T03:07:18;28.05;;;25.25;;
25653;SDS011;13511;48.622;9.230;2022-08-19T03:09:44;28.13;;;25.33;;
25653;SDS011;13511;48.622;9.230;2022-08-19T03:12:10;30.27;;;27.00;;
25653;SDS011;13511;48.622;9.230;2022-08-19T03:14:37;28.00;;;24.92;;
25653;SDS011;13511;48.622;9.230;2022-08-19T03:17:03;28.83;;;25.73;;
25653;SDS011;13511;48.622;9.230;2022-08-19T03:19:29;34.72;;;27.10;;
25653;SDS011;13511;48.622;9.230;2022-08-19T03:21:56;31.73;;;28.20;;
25653;SDS011;13511;48.622;9.230;2022-08-19T03:24:22;30.17;;;26.92;;
25653;SDS011;13511;48.622;9.230;2022-08-19T03:26:50;30.15;;;26.65;;
25653;SDS011;13511;48.622;9.230;2022-08-19T03:29:17;28.88;;;25.92;;
25653;SDS011;13511;48.622;9.230;2022-08-19T03:31:44;27.38;;;24.58;;
25653;SDS011;13511;48.622;9.230;2022-08-19T03:34:14;27.90;;;23.95;;
25653;SDS011;13511;48.622;9.230;2022-08-19T03:36:40;27.92;;;25.00;;
25653;SDS011;13511;48.622;9.230;2022-08-19T03:39:06;29.35;;;26.42;;
25653;SDS011;13511;48.622;9.230;2022-08-19T03:41:38;32.63;;;27.52;;
25653;SDS011;13511;48.622;9.230;2022-08-19T03:44:05;29.17;;;26.25;;
25653;SDS011;13511;48.622;9.230;2022-08-19T03:46:33;28.38;;;25.42;;
25653;SDS011;13511;48.622;9.230;2022-08-19T03:49:00;28.52;;;24.90;;
25653;SDS011;13511;48.622;9.230;2022-08-19T03:51:31;27.08;;;24.27;;
25653;SDS011;13511;48.622;9.230;2022-08-19T03:53:58;29.70;;;25.58;;
25653;SDS011;13511;48.622;9.230;2022-08-19T03:56:25;29.58;;;26.48;;
25653;SDS011;13511;48.622;9.230;2022-08-19T03:58:52;29.02;;;25.92;;
25653;SDS011;13511;48.622;9.230;2022-08-19T04:01:21;31.02;;;27.75;;
25653;SDS011;13511;48.622;9.230;2022-08-19T04:03:47;29.95;;;26.83;;
25653;SDS011;13511;48.622;9.230;2022-08-19T04:06:18;31.33;;;28.05;;
25653;SDS011;13511;48.622;9.230;2022-08-19T04:08:46;33.20;;;27.30;;
25653;SDS011;13511;48.622;9.230;2022-08-19T04:11:13;31.65;;;27.67;;
25653;SDS011;13511;48.622;9.230;2022-08-19T04:13:40;32.88;;;29.38;;
25653;SDS011;13511;48.622;9.230;2022-08-19T04:16:08;34.08;;;30.25;;
25653;SDS011;13511;48.622;9.230;2022-08-19T04:18:35;31.30;;;27.90;;
25653;SDS011;13511;48.622;9.230;2022-08-19T04:21:01;31.15;;;27.95;;
25653;SDS011;13511;48.622;9.230;2022-08-19T04:23:27;32.22;;;28.73;;
25653;SDS011;13511;48.622;9.230;2022-08-19T04:25:53;29.75;;;26.55;;
25653;SDS011;13511;48.622;9.230;2022-08-19T04:28:20;32.20;;;28.77;;
25653;SDS011;13511;48.622;9.230;2022-08-19T04:30:51;34.65;;;28.05;;
25653;SDS011;13511;48.622;9.230;2022-08-19T04:35:44;32.47;;;28.75;;
25653;SDS011;13511;48.622;9.230;2022-08-19T04:38:12;30.33;;;27.17;;
25653;SDS011;13511;48.622;9.230;2022-08-19T04:40:42;32.47;;;28.50;;
25653;SDS011;13511;48.622;9.230;2022-08-19T04:43:28;29.05;;;26.05;;
25653;SDS011;13511;48.622;9.230;2022-08-19T04:45:54;33.85;;;28.42;;
25653;SDS011;13511;48.622;9.230;2022-08-19T04:48:21;30.25;;;27.02;;
25653;SDS011;13511;48.622;9.230;2022-08-19T04:50:54;31.67;;;28.00;;
25653;SDS011;13511;48.622;9.230;2022-08-19T04:53:28;33.60;;;29.02;;
25653;SDS011;13511;48.622;9.230;2022-08-19T04:55:55;31.00;;;27.83;;
25653;SDS011;13511;48.622;9.230;2022-08-19T04:58:22;30.85;;;27.65;;
25653;SDS011;13511;48.622;9.230;2022-08-19T05:00:48;29.98;;;26.65;;
25653;SDS011;13511;48.622;9.230;2022-08-19T05:03:14;30.58;;;27.33;;
25653;SDS011;13511;48.622;9.230;2022-08-19T05:05:42;30.50;;;26.85;;
25653;SDS011;13511;48.622;9.230;2022-08-19T05:08:08;31.98;;;27.27;;
25653;SDS011;13511;48.622;9.230;2022-08-19T05:10:35;32.13;;;28.70;;
25653;SDS011;13511;48.622;9.230;2022-08-19T05:13:01;32.13;;;28.77;;
25653;SDS011;13511;48.622;9.230;2022-08-19T05:15:27;31.83;;;27.75;;
25653;SDS011;13511;48.622;9.230;2022-08-19T05:17:53;30.38;;;27.27;;
25653;SDS011;13511;48.622;9.230;2022-08-19T05:20:38;33.03;;;28.20;;
25653;SDS011;13511;48.622;9.230;2022-08-19T05:23:23;35.75;;;30.15;;
25653;SDS011;13511;48.622;9.230;2022-08-19T05:25:52;32.92;;;29.23;;
25653;SDS011;13511;48.622;9.230;2022-08-19T05:28:19;34.30;;;30.70;;
25653;SDS011;13511;48.622;9.230;2022-08-19T05:30:45;33.80;;;30.15;;
25653;SDS011;13511;48.622;9.230;2022-08-19T05:33:13;35.58;;;28.40;;
25653;SDS011;13511;48.622;9.230;2022-08-19T05:35:39;32.53;;;27.98;;
25653;SDS011;13511;48.622;9.230;2022-08-19T05:38:06;32.22;;;28.30;;
25653;SDS011;13511;48.622;9.230;2022-08-19T05:40:34;34.03;;;29.60;;
25653;SDS011;13511;48.622;9.230;2022-08-19T05:43:01;33.22;;;28.88;;
25653;SDS011;13511;48.622;9.230;2022-08-19T05:45:27;31.55;;;28.35;;
25653;SDS011;13511;48.622;9.230;2022-08-19T05:47:53;33.05;;;29.52;;
25653;SDS011;13511;48.622;9.230;2022-08-19T05:50:19;35.65;;;30.45;;
25653;SDS011;13511;48.622;9.230;2022-08-19T05:52:45;35.35;;;29.25;;
25653;SDS011;13511;48.622;9.230;2022-08-19T05:55:11;32.50;;;28.98;;
25653;SDS011;13511;48.622;9.230;2022-08-19T05:57:37;34.60;;;29.30;;
25653;SDS011;13511;48.622;9.230;2022-08-19T06:00:05;34.03;;;29.65;;
25653;SDS011;13511;48.622;9.230;2022-08-19T06:05:01;37.20;;;31.70;;
25653;SDS011;13511;48.622;9.230;2022-08-19T06:07:28;35.65;;;30.13;;
25653;SDS011;13511;48.622;9.230;2022-08-19T06:09:54;37.63;;;32.42;;
25653;SDS011;13511;48.622;9.230;2022-08-19T06:12:21;41.72;;;36.25;;
25653;SDS011;13511;48.622;9.230;2022-08-19T06:14:53;36.67;;;31.00;;
25653;SDS011;13511;48.622;9.230;2022-08-19T06:17:20;39.08;;;34.22;;
25653;SDS011;13511;48.622;9.230;2022-08-19T06:19:47;39.28;;;33.22;;
25653;SDS011;13511;48.622;9.230;2022-08-19T06:22:14;44.85;;;34.70;;
25653;SDS011;13511;48.622;9.230;2022-08-19T06:24:41;40.38;;;34.20;;
25653;SDS011;13511;48.622;9.230;2022-08-19T06:27:07;38.03;;;32.50;;
25653;SDS011;13511;48.622;9.230;2022-08-19T06:29:33;36.50;;;32.35;;
25653;SDS011;13511;48.622;9.230;2022-08-19T06:32:00;42.33;;;33.38;;
25653;SDS011;13511;48.622;9.230;2022-08-19T06:34:27;41.00;;;34.20;;
25653;SDS011;13511;48.622;9.230;2022-08-19T06:36:54;38.03;;;33.72;;
25653;SDS011;13511;48.622;9.230;2022-08-19T06:39:23;41.92;;;34.28;;
25653;SDS011;13511;48.622;9.230;2022-08-19T06:41:50;41.78;;;35.15;;
25653;SDS011;13511;48.622;9.230;2022-08-19T06:44:17;39.25;;;32.97;;
25653;SDS011;13511;48.622;9.230;2022-08-19T06:46:43;39.22;;;33.97;;
25653;SDS011;13511;48.622;9.230;2022-08-19T06:49:09;37.03;;;32.92;;
25653;SDS011;13511;48.622;9.230;2022-08-19T06:51:38;39.85;;;33.97;;
25653;SDS011;13511;48.622;9.230;2022-08-19T06:54:04;42.90;;;33.72;;
25653;SDS011;13511;48.622;9.230;2022-08-19T06:56:31;37.33;;;32.60;;
25653;SDS011;13511;48.622;9.230;2022-08-19T06:59:01;37.30;;;33.28;;
25653;SDS011;13511;48.622;9.230;2022-08-19T07:01:27;38.67;;;33.70;;
25653;SDS011;13511;48.622;9.230;2022-08-19T07:03:53;39.10;;;34.88;;
25653;SDS011;13511;48.622;9.230;2022-08-19T07:06:19;41.80;;;36.17;;
25653;SDS011;13511;48.622;9.230;2022-08-19T07:08:46;38.20;;;33.88;;
25653;SDS011;13511;48.622;9.230;2022-08-19T07:11:13;41.20;;;35.53;;
25653;SDS011;13511;48.622;9.230;2022-08-19T07:13:39;39.78;;;35.55;;
25653;SDS011;13511;48.622;9.230;2022-08-19T07:16:09;39.25;;;34.95;;
25653;SDS011;13511;48.622;9.230;2022-08-19T07:18:35;40.88;;;36.53;;
25653;SDS011;13511;48.622;9.230;2022-08-19T07:21:13;44.45;;;36.42;;
25653;SDS011;13511;48.622;9.230;2022-08-19T07:23:40;47.25;;;39.35;;
25653;SDS011;13511;48.622;9.230;2022-08-19T07:26:07;42.28;;;36.03;;
25653;SDS011;13511;48.622;9.230;2022-08-19T07:28:33;41.88;;;36.97;;
25653;SDS011;13511;48.622;9.230;2022-08-19T07:30:59;44.70;;;37.33;;
25653;SDS011;13511;48.622;9.230;2022-08-19T07:33:26;40.60;;;34.20;;
25653;SDS011;13511;48.622;9.230;2022-08-19T07:35:55;43.60;;;35.90;;
25653;SDS011;13511;48.622;9.230;2022-08-19T07:38:21;48.75;;;39.97;;
25653;SDS011;13511;48.622;9.230;2022-08-19T07:40:47;50.53;;;37.63;;
25653;SDS011;13511;48.622;9.230;2022-08-19T07:43:13;43.17;;;37.10;;
25653;SDS011;13511;48.622;9.230;2022-08-19T07:45:40;42.10;;;36.05;;
25653;SDS011;13511;48.622;9.230;2022-08-19T07:48:07;54.47;;;39.50;;
25653;SDS011;13511;48.622;9.230;2022-08-19T07:50:33;38.35;;;34.33;;
25653;SDS011;13511;48.622;9.230;2022-08-19T07:52:59;46.03;;;37.28;;
25653;SDS011;13511;48.622;9.230;2022-08-19T07:55:25;41.70;;;37.15;;
25653;SDS011;13511;48.622;9.230;2022-08-19T07:57:52;39.45;;;35.10;;
25653;SDS011;13511;48.622;9.230;2022-08-19T08:00:18;43.92;;;39.25;;
25653;SDS011;13511;48.622;9.230;2022-08-19T08:02:44;44.58;;;37.47;;
25653;SDS011;13511;48.622;9.230;2022-08-19T08:05:10;47.88;;;39.65;;
25653;SDS011;13511;48.622;9.230;2022-08-19T08:07:55;47.28;;;37.63;;
25653;SDS011;13511;48.622;9.230;2022-08-19T08:10:39;47.47;;;39.03;;
25653;SDS011;13511;48.622;9.230;2022-08-19T08:13:05;46.35;;;39.42;;
25653;SDS011;13511;48.622;9.230;2022-08-19T08:15:31;44.70;;;39.42;;
25653;SDS011;13511;48.622;9.230;2022-08-19T08:17:58;51.97;;;38.47;;
25653;SDS011;13511;48.622;9.230;2022-08-19T08:20:24;47.28;;;40.05;;
25653;SDS011;13511;48.622;9.230;2022-08-19T08:22:50;55.03;;;42.67;;
25653;SDS011;13511;48.622;9.230;2022-08-19T08:25:35;62.38;;;47.10;;
25653;SDS011;13511;48.622;9.230;2022-08-19T08:28:02;49.13;;;39.20;;
25653;SDS011;13511;48.622;9.230;2022-08-19T08:30:29;52.30;;;40.22;;
25653;SDS011;13511;48.622;9.230;2022-08-19T08:32:57;51.65;;;41.58;;
25653;SDS011;13511;48.622;9.230;2022-08-19T08:35:23;47.72;;;39.92;;
25653;SDS011;13511;48.622;9.230;2022-08-19T08:37:50;49.78;;;41.25;;
25653;SDS011;13511;48.622;9.230;2022-08-19T08:40:19;46.97;;;38.50;;
25653;SDS011;13511;48.622;9.230;2022-08-19T08:42:57;55.47;;;42.75;;
25653;SDS011;13511;48.622;9.230;2022-08-19T08:45:27;47.92;;;41.05;;
25653;SDS011;13511;48.622;9.230;2022-08-19T08:47:54;44.63;;;39.20;;
25653;SDS011;13511;48.622;9.230;2022-08-19T08:50:29;50.38;;;40.85;;
25653;SDS011;13511;48.622;9.230;2022-08-19T08:52:56;42.80;;;38.13;;
25653;SDS011;13511;48.622;9.230;2022-08-19T08:55:24;50.22;;;39.85;;
25653;SDS011;13511;48.622;9.230;2022-08-19T08:57:52;56.78;;;41.83;;
25653;SDS011;13511;48.622;9.230;2022-08-19T09:00:39;53.13;;;42.97;;
25653;SDS011;13511;48.622;9.230;2022-08-19T09:06:02;43.05;;;38.38;;
25653;SDS011;13511;48.622;9.230;2022-08-19T09:10:55;102.80;;;38.35;;
25653;SDS011;13511;48.622;9.230;2022-08-19T09:18:45;51.28;;;41.25;;
25653;SDS011;13511;48.622;9.230;2022-08-19T09:21:12;52.78;;;41.78;;
25653;SDS011;13511;48.622;9.230;2022-08-19T09:23:38;53.58;;;41.67;;
25653;SDS011;13511;48.622;9.230;2022-08-19T09:26:08;51.45;;;41.25;;
25653;SDS011;13511;48.622;9.230;2022-08-19T09:28:35;46.40;;;40.83;;
25653;SDS011;13511;48.622;9.230;2022-08-19T09:31:02;42.42;;;37.85;;
25653;SDS011;13511;48.622;9.230;2022-08-19T09:33:28;56.08;;;42.22;;
25653;SDS011;13511;48.622;9.230;2022-08-19T09:36:07;54.67;;;43.50;;
25653;SDS011;13511;48.622;9.230;2022-08-19T09:38:33;52.35;;;42.47;;
25653;SDS011;13511;48.622;9.230;2022-08-19T09:41:03;51.75;;;39.85;;
25653;SDS011;13511;48.622;9.230;2022-08-19T09:43:29;49.05;;;41.70;;
25653;SDS011;13511;48.622;9.230;2022-08-19T09:45:56;50.58;;;41.08;;
25653;SDS011;13511;48.622;9.230;2022-08-19T09:48:22;46.42;;;38.75;;
25653;SDS011;13511;48.622;9.230;2022-08-19T09:50:48;49.38;;;39.60;;
25653;SDS011;13511;48.622;9.230;2022-08-19T09:53:16;49.17;;;42.88;;
25653;SDS011;13511;48.622;9.230;2022-08-19T09:55:42;49.47;;;40.35;;
25653;SDS011;13511;48.622;9.230;2022-08-19T09:58:09;45.25;;;39.30;;
25653;SDS011;13511;48.622;9.230;2022-08-19T10:00:36;48.72;;;39.40;;
25653;SDS011;13511;48.622;9.230;2022-08-19T10:03:03;47.10;;;39.67;;
25653;SDS011;13511;48.622;9.230;2022-08-19T10:05:29;46.10;;;39.17;;
25653;SDS011;13511;48.622;9.230;2022-08-19T10:08:14;51.83;;;40.63;;
25653;SDS011;13511;48.622;9.230;2022-08-19T10:10:40;49.05;;;39.45;;
25653;SDS011;13511;48.622;9.230;2022-08-19T10:13:10;41.35;;;36.85;;
25653;SDS011;13511;48.622;9.230;2022-08-19T10:15:36;46.97;;;41.22;;
25653;SDS011;13511;48.622;9.230;2022-08-19T10:18:04;50.38;;;41.13;;
25653;SDS011;13511;48.622;9.230;2022-08-19T10:20:31;42.90;;;38.17;;
25653;SDS011;13511;48.622;9.230;2022-08-19T10:22:57;46.00;;;37.97;;
25653;SDS011;13511;48.622;9.230;2022-08-19T10:25:26;45.95;;;40.42;;
25653;SDS011;13511;48.622;9.230;2022-08-19T10:27:52;48.70;;;39.67;;
25653;SDS011;13511;48.622;9.230;2022-08-19T10:30:18;48.05;;;40.70;;
25653;SDS011;13511;48.622;9.230;2022-08-19T10:32:45;48.83;;;41.85;;
25653;SDS011;13511;48.622;9.230;2022-08-19T10:35:11;63.25;;;45.08;;
25653;SDS011;13511;48.622;9.230;2022-08-19T10:37:37;55.95;;;42.85;;
25653;SDS011;13511;48.622;9.230;2022-08-19T10:40:07;53.80;;;44.83;;
25653;SDS011;13511;48.622;9.230;2022-08-19T10:42:35;47.05;;;40.15;;
25653;SDS011;13511;48.622;9.230;2022-08-19T10:45:02;47.15;;;41.40;;
25653;SDS011;13511;48.622;9.230;2022-08-19T10:47:28;56.22;;;42.65;;
25653;SDS011;13511;48.622;9.230;2022-08-19T10:49:54;54.15;;;43.90;;
25653;SDS011;13511;48.622;9.230;2022-08-19T10:52:40;51.63;;;44.25;;
25653;SDS011;13511;48.622;9.230;2022-08-19T10:55:06;48.97;;;43.55;;
25653;SDS011;13511;48.622;9.230;2022-08-19T10:57:51;53.92;;;42.70;;
25653;SDS011;13511;48.622;9.230;2022-08-19T11:00:17;50.58;;;43.47;;
25653;SDS011;13511;48.622;9.230;2022-08-19T11:02:44;52.97;;;45.47;;
25653;SDS011;13511;48.622;9.230;2022-08-19T11:05:10;51.70;;;44.60;;
25653;SDS011;13511;48.622;9.230;2022-08-19T11:07:40;52.53;;;45.17;;
25653;SDS011;13511;48.622;9.230;2022-08-19T11:10:08;54.40;;;45.00;;
25653;SDS011;13511;48.622;9.230;2022-08-19T11:12:38;60.25;;;47.47;;
25653;SDS011;13511;48.622;9.230;2022-08-19T11:15:05;53.53;;;43.42;;
25653;SDS011;13511;48.622;9.230;2022-08-19T11:17:32;52.97;;;42.67;;
25653;SDS011;13511;48.622;9.230;2022-08-19T11:19:58;53.05;;;44.72;;
25653;SDS011;13511;48.622;9.230;2022-08-19T11:22:27;55.88;;;46.60;;
25653;SDS011;13511;48.622;9.230;2022-08-19T11:24:54;57.63;;;44.85;;
25653;SDS011;13511;48.622;9.230;2022-08-19T11:27:20;64.25;;;49.03;;
25653;SDS011;13511;48.622;9.230;2022-08-19T11:29:46;60.15;;;47.72;;
25653;SDS011;13511;48.622;9.230;2022-08-19T11:32:12;53.03;;;44.42;;
25653;SDS011;13511;48.622;9.230;2022-08-19T11:34:39;57.28;;;47.08;;
25653;SDS011;13511;48.622;9.230;2022-08-19T11:37:05;55.97;;;45.58;;
25653;SDS011;13511;48.622;9.230;2022-08-19T11:39:32;57.22;;;46.67;;
25653;SDS011;13511;48.622;9.230;2022-08-19T11:41:59;60.53;;;47.38;;
25653;SDS011;13511;48.622;9.230;2022-08-19T11:44:26;55.92;;;47.65;;
25653;SDS011;13511;48.622;9.230;2022-08-19T11:46:55;56.97;;;46.75;;
25653;SDS011;13511;48.622;9.230;2022-08-19T11:49:21;52.70;;;43.42;;
25653;SDS011;13511;48.622;9.230;2022-08-19T11:51:47;48.97;;;43.40;;
25653;SDS011;13511;48.622;9.230;2022-08-19T11:54:16;52.78;;;44.58;;
25653;SDS011;13511;48.622;9.230;2022-08-19T11:56:42;52.88;;;45.58;;
25653;SDS011;13511;48.622;9.230;2022-08-19T11:59:09;55.33;;;46.83;;
25653;SDS011;13511;48.622;9.230;2022-08-19T12:01:35;54.22;;;44.63;;
25653;SDS011;13511;48.622;9.230;2022-08-19T12:04:02;54.75;;;45.70;;
25653;SDS011;13511;48.622;9.230;2022-08-19T12:06:31;54.33;;;46.08;;
25653;SDS011;13511;48.622;9.230;2022-08-19T12:09:00;53.35;;;46.35;;
25653;SDS011;13511;48.622;9.230;2022-08-19T12:11:27;62.63;;;49.72;;
25653;SDS011;13511;48.622;9.230;2022-08-19T12:13:53;60.10;;;48.50;;
25653;SDS011;13511;48.622;9.230;2022-08-19T12:16:20;59.53;;;48.45;;
25653;SDS011;13511;48.622;9.230;2022-08-19T12:18:47;61.53;;;49.03;;
25653;SDS011;13511;48.622;9.230;2022-08-19T12:21:16;60.58;;;48.67;;
25653;SDS011;13511;48.622;9.230;2022-08-19T12:23:42;52.70;;;46.35;;
25653;SDS011;13511;48.622;9.230;2022-08-19T12:26:10;56.05;;;47.47;;
25653;SDS011;13511;48.622;9.230;2022-08-19T12:28:37;60.55;;;50.63;;
25653;SDS011;13511;48.622;9.230;2022-08-19T12:31:03;61.70;;;49.15;;
25653;SDS011;13511;48.622;9.230;2022-08-19T12:33:29;57.97;;;47.80;;
25653;SDS011;13511;48.622;9.230;2022-08-19T12:36:00;53.35;;;45.65;;
25653;SDS011;13511;48.622;9.230;2022-08-19T12:38:26;53.72;;;46.03;;
25653;SDS011;13511;48.622;9.230;2022-08-19T12:40:52;57.25;;;47.25;;
25653;SDS011;13511;48.622;9.230;2022-08-19T12:43:18;51.33;;;45.78;;
25653;SDS011;13511;48.622;9.230;2022-08-19T12:45:47;56.38;;;47.33;;
25653;SDS011;13511;48.622;9.230;2022-08-19T12:48:13;62.03;;;48.92;;
25653;SDS011;13511;48.622;9.230;2022-08-19T12:50:40;54.70;;;46.00;;
25653;SDS011;13511;48.622;9.230;2022-08-19T12:53:06;55.42;;;46.05;;
25653;SDS011;13511;48.622;9.230;2022-08-19T12:55:32;52.03;;;44.63;;
25653;SDS011;13511;48.622;9.230;2022-08-19T12:57:58;55.83;;;46.03;;
25653;SDS011;13511;48.622;9.230;2022-08-19T13:00:26;53.10;;;44.42;;
25653;SDS011;13511;48.622;9.230;2022-08-19T13:02:53;49.88;;;43.03;;
25653;SDS011;13511;48.622;9.230;2022-08-19T13:05:23;51.88;;;45.78;;
25653;SDS011;13511;48.622;9.230;2022-08-19T13:07:50;52.13;;;45.20;;
25653;SDS011;13511;48.622;9.230;2022-08-19T13:10:17;57.10;;;49.10;;
25653;SDS011;13511;48.622;9.230;2022-08-19T13:12:44;54.83;;;48.63;;
25653;SDS011;13511;48.622;9.230;2022-08-19T13:15:11;57.33;;;48.13;;
25653;SDS011;13511;48.622;9.230;2022-08-19T13:17:37;58.38;;;47.08;;
25653;SDS011;13511;48.622;9.230;2022-08-19T13:20:04;56.83;;;47.67;;
25653;SDS011;13511;48.622;9.230;2022-08-19T13:22:32;49.72;;;44.22;;
25653;SDS011;13511;48.622;9.230;2022-08-19T13:24:58;47.88;;;42.53;;
25653;SDS011;13511;48.622;9.230;2022-08-19T13:27:24;52.50;;;43.65;;
25653;SDS011;13511;48.622;9.230;2022-08-19T13:29:50;52.95;;;47.17;;
25653;SDS011;13511;48.622;9.230;2022-08-19T13:32:35;57.15;;;48.70;;
25653;SDS011;13511;48.622;9.230;2022-08-19T13:35:20;47.10;;;42.10;;
25653;SDS011;13511;48.622;9.230;2022-08-19T13:37:46;50.53;;;44.92;;
25653;SDS011;13511;48.622;9.230;2022-08-19T13:40:16;54.83;;;47.72;;
25653;SDS011;13511;48.622;9.230;2022-08-19T13:42:47;52.85;;;44.22;;
25653;SDS011;13511;48.622;9.230;2022-08-19T13:45:18;50.00;;;43.05;;
25653;SDS011;13511;48.622;9.230;2022-08-19T13:47:48;43.97;;;39.38;;
25653;SDS011;13511;48.622;9.230;2022-08-19T13:50:18;46.65;;;40.97;;
25653;SDS011;13511;48.622;9.230;2022-08-19T13:52:44;52.20;;;44.30;;
25653;SDS011;13511;48.622;9.230;2022-08-19T13:55:12;48.55;;;43.30;;
25653;SDS011;13511;48.622;9.230;2022-08-19T13:57:38;44.47;;;39.65;;
25653;SDS011;13511;48.622;9.230;2022-08-19T14:00:06;45.53;;;40.58;;
25653;SDS011;13511;48.622;9.230;2022-08-19T14:02:34;47.83;;;42.83;;
25653;SDS011;13511;48.622;9.230;2022-08-19T14:05:00;46.60;;;41.78;;
25653;SDS011;13511;48.622;9.230;2022-08-19T14:07:26;46.65;;;41.65;;
25653;SDS011;13511;48.622;9.230;2022-08-19T14:09:52;46.75;;;41.58;;
25653;SDS011;13511;48.622;9.230;2022-08-19T14:12:19;46.03;;;41.30;;
25653;SDS011;13511;48.622;9.230;2022-08-19T14:14:45;41.42;;;37.05;;
25653;SDS011;13511;48.622;9.230;2022-08-19T14:17:11;43.83;;;39.53;;
25653;SDS011;13511;48.622;9.230;2022-08-19T14:19:37;45.80;;;40.85;;
25653;SDS011;13511;48.622;9.230;2022-08-19T14:22:03;45.33;;;40.45;;
25653;SDS011;13511;48.622;9.230;2022-08-19T14:24:30;44.10;;;39.25;;
25653;SDS011;13511;48.622;9.230;2022-08-19T14:26:57;46.10;;;41.38;;
25653;SDS011;13511;48.622;9.230;2022-08-19T14:29:23;44.22;;;39.55;;
25653;SDS011;13511;48.622;9.230;2022-08-19T14:31:49;41.10;;;36.90;;
25653;SDS011;13511;48.622;9.230;2022-08-19T14:34:15;41.83;;;37.42;;
25653;SDS011;13511;48.622;9.230;2022-08-19T14:36:41;45.97;;;39.97;;
25653;SDS011;13511;48.622;9.230;2022-08-19T14:39:08;43.75;;;39.47;;